Blue Star 1 — SWET — position and weather

sailwx.info

Track history (hours):
 
Tides and Currents Weather Stations Pressure Air Temp Water Temp Dewpoint Dewpoint Depression Visibility Wind Speed Wind Dir Waves Ship Positions

Blue Star 1

Last reported at 2014-Sep-17 00:22 UTC. Time now 2014-Sep-17 01:37 UTC.
Position N 36°43' E 026°15'.

Length 176 m; draft 6.5 m.

Type: Passenger vessel. MMSI: 239710000.

Date/timePositionNaut miles runAvg speedWind from/ knotsBaromVisibWave heightAir tempDewpointWater temp
2014-Sep-17 00:22N 36°43' E 026°15'1822.2
2014-Sep-16 23:33N 36°38' E 025°53'2221.9
2014-Sep-16 22:33N 36°31' E 025°27'8 8.3
2014-Sep-16 21:33N 36°23' E 025°26'1716.6
2014-Sep-16 20:33N 36°29' E 025°06'2121.4
2014-Sep-16 19:33N 36°43' E 024°46'2121.2
2014-Sep-16 18:33N 36°59' E 024°28'5222.0
2014-Sep-16 16:11N 37°38' E 023°45'1422.0
2014-Sep-16 15:33N 37°50' E 023°37'6 6.3
2014-Sep-16 14:33N 37°56' E 023°38'0 0.0
2014-Sep-16 13:30N 37°56' E 023°38'0 0.0
2014-Sep-16 12:33N 37°56' E 023°38'0 0.0
2014-Sep-16 11:33N 37°56' E 023°38'0 0.0
2014-Sep-16 10:33N 37°56' E 023°38'0 0.0
2014-Sep-16 09:33N 37°56' E 023°38'0 0.0
2014-Sep-16 08:33N 37°56' E 023°38'0 0.0
2014-Sep-16 07:33N 37°56' E 023°38'0 0.0
2014-Sep-16 06:32N 37°56' E 023°38'0 0.0
2014-Sep-16 05:29N 37°56' E 023°38'1 1.2
2014-Sep-16 04:34N 37°56' E 023°36'4620.2
2014-Sep-16 02:18N 37°17' E 024°08'1721.9
2014-Sep-16 01:32N 37°05' E 024°22'2222.5
2014-Sep-16 00:34N 36°49' E 024°40'2222.0
2014-Sep-15 23:33N 36°33' E 024°59'2221.7
2014-Sep-15 22:33N 36°23' E 025°23'2 2.3
2014-Sep-15 21:34N 36°25' E 025°24'1716.7
2014-Sep-15 20:34N 36°35' E 025°41'2222.0
2014-Sep-15 19:34N 36°41' E 026°07'2221.7
2014-Sep-15 18:33N 36°47' E 026°34'2221.9
2014-Sep-15 17:33N 36°53' E 027°00'19 9.1
2014-Sep-15 15:30N 36°46' E 027°21'2519.3
2014-Sep-15 14:13N 36°32' E 027°47'38 3.2
2014-Sep-15 02:19N 36°55' E 027°10'1921.7
2014-Sep-15 01:26N 36°50' E 026°47'2022.2
2014-Sep-15 00:33N 36°45' E 026°23'2222.0
2014-Sep-14 23:33N 36°39' E 025°57'2221.9
2014-Sep-14 22:34N 36°33' E 025°31'1010.2
2014-Sep-14 21:34N 36°23' E 025°26'1312.9
2014-Sep-14 20:34N 36°27' E 025°10'2221.8
2014-Sep-14 19:33N 36°40' E 024°48'2121.4
2014-Sep-14 18:34N 36°57' E 024°32'6521.7
2014-Sep-14 15:34N 37°47' E 023°39'10 9.6
2014-Sep-14 14:31N 37°56' E 023°38'0 0.0
2014-Sep-14 13:31N 37°56' E 023°38'0 0.0
2014-Sep-14 12:31N 37°56' E 023°38'0 0.0
2014-Sep-14 11:31N 37°56' E 023°38'0 0.0
2014-Sep-14 10:31N 37°56' E 023°38'0 0.0
2014-Sep-14 09:31N 37°56' E 023°38'0 0.0
2014-Sep-14 08:31N 37°56' E 023°38'0 0.0
2014-Sep-14 07:34N 37°56' E 023°38'0 0.0
2014-Sep-14 06:33N 37°56' E 023°38'0 0.0
2014-Sep-13 07:07N 37°57' E 023°38'0 0.0
2014-Sep-13 06:31N 37°57' E 023°38'0 0.0
2014-Sep-13 05:25N 37°57' E 023°38'0 0.1
2014-Sep-13 04:34N 37°56' E 023°38'2019.4
2014-Sep-13 03:33N 37°38' E 023°48'2322.7
2014-Sep-13 02:32N 37°22' E 024°08'2221.5
2014-Sep-13 01:31N 37°04' E 024°24'2122.3
2014-Sep-13 00:34N 36°48' E 024°41'2221.6
2014-Sep-12 23:33N 36°32' E 024°60'2121.1
2014-Sep-12 22:33N 36°23' E 025°23'2 2.5
2014-Sep-12 21:33N 36°26' E 025°24'1717.5
2014-Sep-12 20:34N 36°35' E 025°42'2222.2
2014-Sep-12 19:34N 36°42' E 026°08'2221.7
2014-Sep-12 18:33N 36°48' E 026°34'2322.0
2014-Sep-12 17:31N 36°53' E 027°02'2310.0
2014-Sep-12 15:16N 36°39' E 027°24'1621.7
2014-Sep-12 14:31N 36°33' E 027°43'19 1.9
2014-Sep-12 04:16N 36°41' E 027°21'18 8.5
2014-Sep-12 02:06N 36°54' E 027°04'1322.1
2014-Sep-12 01:31N 36°51' E 026°48'2222.3
2014-Sep-12 00:32N 36°44' E 026°22'2222.2
2014-Sep-11 23:33N 36°38' E 025°56'2221.8
2014-Sep-11 22:33N 36°32' E 025°30'10 9.8
2014-Sep-11 21:33N 36°23' E 025°26'1413.7
2014-Sep-11 20:33N 36°27' E 025°09'2221.9
2014-Sep-11 19:33N 36°40' E 024°48'2221.8
2014-Sep-11 18:34N 36°57' E 024°30'3022.0
2014-Sep-11 17:12N 37°19' E 024°05'1821.9
2014-Sep-11 16:21N 37°33' E 023°50'1721.8
2014-Sep-11 15:34N 37°48' E 023°38'9 8.6
2014-Sep-11 14:34N 37°56' E 023°38'0 0.0
2014-Sep-11 13:33N 37°56' E 023°38'0 0.0
2014-Sep-11 12:32N 37°56' E 023°38'0 0.0
2014-Sep-11 11:32N 37°56' E 023°38'0 0.0
2014-Sep-11 10:32N 37°56' E 023°38'0 0.0
2014-Sep-11 09:29N 37°56' E 023°38'0 0.0
2014-Sep-11 08:32N 37°56' E 023°38'0 0.0
2014-Sep-11 07:32N 37°56' E 023°38'0 0.0
2014-Sep-11 06:32N 37°56' E 023°38'0 0.0
2014-Sep-11 05:32N 37°56' E 023°38'1 1.5
2014-Sep-11 04:33N 37°55' E 023°37'2319.8
2014-Sep-11 03:25N 37°35' E 023°51'2221.7
2014-Sep-11 02:24N 37°19' E 024°09'2321.7
2014-Sep-11 01:21N 37°01' E 024°28'1822.2
2014-Sep-11 00:33N 36°48' E 024°42'2121.3
2014-Sep-10 23:33N 36°32' E 024°60'2121.1
2014-Sep-10 22:33N 36°23' E 025°24'3 2.5
2014-Sep-10 21:33N 36°26' E 025°24'1817.8
2014-Sep-10 20:34N 36°35' E 025°42'2222.0
2014-Sep-10 19:34N 36°42' E 026°09'2521.4
2014-Sep-10 18:23N 36°48' E 026°39'19 1.1
2014-Sep-10 00:15N 36°43' E 026°16'1724.8
2014-Sep-09 23:34N 36°39' E 025°55'2524.8
2014-Sep-09 22:34N 36°31' E 025°26'8 7.8
2014-Sep-09 21:33N 36°23' E 025°26'1716.9
2014-Sep-09 20:33N 36°29' E 025°06'2121.3
2014-Sep-09 19:33N 36°43' E 024°46'2221.6
2014-Sep-09 18:33N 36°59' E 024°28'6521.7
2014-Sep-09 15:33N 37°50' E 023°37'7 6.5
2014-Sep-09 14:33N 37°56' E 023°38'0 0.0
2014-Sep-09 13:32N 37°56' E 023°38'0 0.0
2014-Sep-09 12:32N 37°56' E 023°38'0 0.0
2014-Sep-09 11:32N 37°56' E 023°38'0 0.0
2014-Sep-09 10:32N 37°56' E 023°38'0 0.0
2014-Sep-09 09:32N 37°56' E 023°38'0 0.0
2014-Sep-09 08:32N 37°56' E 023°38'0 0.0
2014-Sep-09 07:32N 37°56' E 023°38'0 0.0
2014-Sep-09 06:32N 37°56' E 023°38'0 0.0
2014-Sep-09 05:32N 37°56' E 023°38'1 1.5
2014-Sep-09 04:33N 37°55' E 023°37'2019.5
2014-Sep-09 03:31N 37°37' E 023°49'2521.5
2014-Sep-09 02:20N 37°18' E 024°10'1821.4
2014-Sep-09 01:29N 37°04' E 024°24'2122.2
2014-Sep-09 00:33N 36°48' E 024°41'2221.8
2014-Sep-08 23:33N 36°32' E 024°59'2221.5
2014-Sep-08 22:33N 36°23' E 025°24'3 2.8
2014-Sep-08 21:33N 36°26' E 025°23'1818.2
2014-Sep-08 20:33N 36°35' E 025°42'2222.0
2014-Sep-08 19:34N 36°41' E 026°09'12 0.6
2014-Sep-08 00:33N 36°44' E 026°24'2222.6
2014-Sep-07 23:34N 36°38' E 025°57'2914.4
2014-Sep-07 21:33N 36°23' E 025°26'1514.8
2014-Sep-07 20:33N 36°27' E 025°08'2221.7
2014-Sep-07 19:33N 36°41' E 024°47'2222.0
2014-Sep-07 18:33N 36°58' E 024°29'4922.2
2014-Sep-07 16:19N 37°34' E 023°47'1722.1
2014-Sep-07 15:33N 37°49' E 023°37'7 7.3
2014-Sep-07 14:32N 37°56' E 023°37'0 0.0
2014-Sep-07 13:33N 37°56' E 023°37'  
Track history (hours):
 
Tides and Currents Weather Stations Pressure Air Temp Water Temp Dewpoint Dewpoint Depression Visibility Wind Speed Wind Dir Waves Ship Positions

Blue Star 1

Last reported at 2014-Sep-17 00:22 UTC. Time now 2014-Sep-17 01:37 UTC.
Position N 36°43' E 026°15'.

Length 176 m; draft 6.5 m.

Type: Passenger vessel. MMSI: 239710000.

Date/timePositionNaut miles runAvg speedWind from/ knotsBaromVisibWave heightAir tempDewpointWater temp
2014-Sep-17 00:22N 36°43' E 026°15'1822.2
2014-Sep-16 23:33N 36°38' E 025°53'2221.9
2014-Sep-16 22:33N 36°31' E 025°27'8 8.3
2014-Sep-16 21:33N 36°23' E 025°26'1716.6
2014-Sep-16 20:33N 36°29' E 025°06'2121.4
2014-Sep-16 19:33N 36°43' E 024°46'2121.2
2014-Sep-16 18:33N 36°59' E 024°28'5222.0
2014-Sep-16 16:11N 37°38' E 023°45'1422.0
2014-Sep-16 15:33N 37°50' E 023°37'6 6.3
2014-Sep-16 14:33N 37°56' E 023°38'0 0.0
2014-Sep-16 13:30N 37°56' E 023°38'0 0.0
2014-Sep-16 12:33N 37°56' E 023°38'0 0.0
2014-Sep-16 11:33N 37°56' E 023°38'0 0.0
2014-Sep-16 10:33N 37°56' E 023°38'0 0.0
2014-Sep-16 09:33N 37°56' E 023°38'0 0.0
2014-Sep-16 08:33N 37°56' E 023°38'0 0.0
2014-Sep-16 07:33N 37°56' E 023°38'0 0.0
2014-Sep-16 06:32N 37°56' E 023°38'0 0.0
2014-Sep-16 05:29N 37°56' E 023°38'1 1.2
2014-Sep-16 04:34N 37°56' E 023°36'4620.2
2014-Sep-16 02:18N 37°17' E 024°08'1721.9
2014-Sep-16 01:32N 37°05' E 024°22'2222.5
2014-Sep-16 00:34N 36°49' E 024°40'2222.0
2014-Sep-15 23:33N 36°33' E 024°59'2221.7
2014-Sep-15 22:33N 36°23' E 025°23'2 2.3
2014-Sep-15 21:34N 36°25' E 025°24'1716.7
2014-Sep-15 20:34N 36°35' E 025°41'2222.0
2014-Sep-15 19:34N 36°41' E 026°07'2221.7
2014-Sep-15 18:33N 36°47' E 026°34'2221.9
2014-Sep-15 17:33N 36°53' E 027°00'19 9.1
2014-Sep-15 15:30N 36°46' E 027°21'2519.3
2014-Sep-15 14:13N 36°32' E 027°47'38 3.2
2014-Sep-15 02:19N 36°55' E 027°10'1921.7
2014-Sep-15 01:26N 36°50' E 026°47'2022.2
2014-Sep-15 00:33N 36°45' E 026°23'2222.0
2014-Sep-14 23:33N 36°39' E 025°57'2221.9
2014-Sep-14 22:34N 36°33' E 025°31'1010.2
2014-Sep-14 21:34N 36°23' E 025°26'1312.9
2014-Sep-14 20:34N 36°27' E 025°10'2221.8
2014-Sep-14 19:33N 36°40' E 024°48'2121.4
2014-Sep-14 18:34N 36°57' E 024°32'6521.7
2014-Sep-14 15:34N 37°47' E 023°39'10 9.6
2014-Sep-14 14:31N 37°56' E 023°38'0 0.0
2014-Sep-14 13:31N 37°56' E 023°38'0 0.0
2014-Sep-14 12:31N 37°56' E 023°38'0 0.0
2014-Sep-14 11:31N 37°56' E 023°38'0 0.0
2014-Sep-14 10:31N 37°56' E 023°38'0 0.0
2014-Sep-14 09:31N 37°56' E 023°38'0 0.0
2014-Sep-14 08:31N 37°56' E 023°38'0 0.0
2014-Sep-14 07:34N 37°56' E 023°38'0 0.0
2014-Sep-14 06:33N 37°56' E 023°38'0 0.0
2014-Sep-13 07:07N 37°57' E 023°38'0 0.0
2014-Sep-13 06:31N 37°57' E 023°38'0 0.0
2014-Sep-13 05:25N 37°57' E 023°38'0 0.1
2014-Sep-13 04:34N 37°56' E 023°38'2019.4
2014-Sep-13 03:33N 37°38' E 023°48'2322.7
2014-Sep-13 02:32N 37°22' E 024°08'2221.5
2014-Sep-13 01:31N 37°04' E 024°24'2122.3
2014-Sep-13 00:34N 36°48' E 024°41'2221.6
2014-Sep-12 23:33N 36°32' E 024°60'2121.1
2014-Sep-12 22:33N 36°23' E 025°23'2 2.5
2014-Sep-12 21:33N 36°26' E 025°24'1717.5
2014-Sep-12 20:34N 36°35' E 025°42'2222.2
2014-Sep-12 19:34N 36°42' E 026°08'2221.7
2014-Sep-12 18:33N 36°48' E 026°34'2322.0
2014-Sep-12 17:31N 36°53' E 027°02'2310.0
2014-Sep-12 15:16N 36°39' E 027°24'1621.7
2014-Sep-12 14:31N 36°33' E 027°43'19 1.9
2014-Sep-12 04:16N 36°41' E 027°21'18 8.5
2014-Sep-12 02:06N 36°54' E 027°04'1322.1
2014-Sep-12 01:31N 36°51' E 026°48'2222.3
2014-Sep-12 00:32N 36°44' E 026°22'2222.2
2014-Sep-11 23:33N 36°38' E 025°56'2221.8
2014-Sep-11 22:33N 36°32' E 025°30'10 9.8
2014-Sep-11 21:33N 36°23' E 025°26'1413.7
2014-Sep-11 20:33N 36°27' E 025°09'2221.9
2014-Sep-11 19:33N 36°40' E 024°48'2221.8
2014-Sep-11 18:34N 36°57' E 024°30'3022.0
2014-Sep-11 17:12N 37°19' E 024°05'1821.9
2014-Sep-11 16:21N 37°33' E 023°50'1721.8
2014-Sep-11 15:34N 37°48' E 023°38'9 8.6
2014-Sep-11 14:34N 37°56' E 023°38'0 0.0
2014-Sep-11 13:33N 37°56' E 023°38'0 0.0
2014-Sep-11 12:32N 37°56' E 023°38'0 0.0
2014-Sep-11 11:32N 37°56' E 023°38'0 0.0
2014-Sep-11 10:32N 37°56' E 023°38'0 0.0
2014-Sep-11 09:29N 37°56' E 023°38'0 0.0
2014-Sep-11 08:32N 37°56' E 023°38'0 0.0
2014-Sep-11 07:32N 37°56' E 023°38'0 0.0
2014-Sep-11 06:32N 37°56' E 023°38'0 0.0
2014-Sep-11 05:32N 37°56' E 023°38'1 1.5
2014-Sep-11 04:33N 37°55' E 023°37'2319.8
2014-Sep-11 03:25N 37°35' E 023°51'2221.7
2014-Sep-11 02:24N 37°19' E 024°09'2321.7
2014-Sep-11 01:21N 37°01' E 024°28'1822.2
2014-Sep-11 00:33N 36°48' E 024°42'2121.3
2014-Sep-10 23:33N 36°32' E 024°60'2121.1
2014-Sep-10 22:33N 36°23' E 025°24'3 2.5
2014-Sep-10 21:33N 36°26' E 025°24'1817.8
2014-Sep-10 20:34N 36°35' E 025°42'2222.0
2014-Sep-10 19:34N 36°42' E 026°09'2521.4
2014-Sep-10 18:23N 36°48' E 026°39'19 1.1
2014-Sep-10 00:15N 36°43' E 026°16'1724.8
2014-Sep-09 23:34N 36°39' E 025°55'2524.8
2014-Sep-09 22:34N 36°31' E 025°26'8 7.8
2014-Sep-09 21:33N 36°23' E 025°26'1716.9
2014-Sep-09 20:33N 36°29' E 025°06'2121.3
2014-Sep-09 19:33N 36°43' E 024°46'2221.6
2014-Sep-09 18:33N 36°59' E 024°28'6521.7
2014-Sep-09 15:33N 37°50' E 023°37'7 6.5
2014-Sep-09 14:33N 37°56' E 023°38'0 0.0
2014-Sep-09 13:32N 37°56' E 023°38'0 0.0
2014-Sep-09 12:32N 37°56' E 023°38'0 0.0
2014-Sep-09 11:32N 37°56' E 023°38'0 0.0
2014-Sep-09 10:32N 37°56' E 023°38'0 0.0
2014-Sep-09 09:32N 37°56' E 023°38'0 0.0
2014-Sep-09 08:32N 37°56' E 023°38'0 0.0
2014-Sep-09 07:32N 37°56' E 023°38'0 0.0
2014-Sep-09 06:32N 37°56' E 023°38'0 0.0
2014-Sep-09 05:32N 37°56' E 023°38'1 1.5
2014-Sep-09 04:33N 37°55' E 023°37'2019.5
2014-Sep-09 03:31N 37°37' E 023°49'2521.5
2014-Sep-09 02:20N 37°18' E 024°10'1821.4
2014-Sep-09 01:29N 37°04' E 024°24'2122.2
2014-Sep-09 00:33N 36°48' E 024°41'2221.8
2014-Sep-08 23:33N 36°32' E 024°59'2221.5
2014-Sep-08 22:33N 36°23' E 025°24'3 2.8
2014-Sep-08 21:33N 36°26' E 025°23'1818.2
2014-Sep-08 20:33N 36°35' E 025°42'2222.0
2014-Sep-08 19:34N 36°41' E 026°09'12 0.6
2014-Sep-08 00:33N 36°44' E 026°24'2222.6
2014-Sep-07 23:34N 36°38' E 025°57'2914.4
2014-Sep-07 21:33N 36°23' E 025°26'1514.8
2014-Sep-07 20:33N 36°27' E 025°08'2221.7
2014-Sep-07 19:33N 36°41' E 024°47'2222.0
2014-Sep-07 18:33N 36°58' E 024°29'4922.2
2014-Sep-07 16:19N 37°34' E 023°47'1722.1
2014-Sep-07 15:33N 37°49' E 023°37'7 7.3
2014-Sep-07 14:32N 37°56' E 023°37'0 0.0
2014-Sep-07 13:33N 37°56' E 023°37'  

Dump ship's entire track history